Time;durP1;ratioP1;P1;durP2;ratioP2;P2;SDS_P1;SDS_P2;PMS_P1;PMS_P2;Temp;Humidity;BMP_temperature;BMP_pressure;BME280_temperature;BME280_humidity;BME280_pressure;Samples;Min_cycle;Max_cycle;Signal;HPM_P1;HPM_P2
2021/12/25 00:00:12;;;;;;;6.18;3.17;;;1.50;99.90;;;;;;5033434;28;20034;-71
2021/12/25 00:02:39;;;;;;;11.07;3.45;;;1.40;99.90;;;;;;5032937;28;20486;-71
2021/12/25 00:05:05;;;;;;;10.57;2.97;;;1.40;99.90;;;;;;5033410;28;20096;-71
2021/12/25 00:07:31;;;;;;;6.80;3.22;;;1.40;99.90;;;;;;5033335;28;20121;-71
2021/12/25 00:09:58;;;;;;;5.55;3.28;;;1.40;99.90;;;;;;5033195;28;20069;-70
2021/12/25 00:12:24;;;;;;;8.30;3.53;;;1.50;99.90;;;;;;5031504;28;20033;-71
2021/12/25 00:14:50;;;;;;;5.32;2.55;;;1.40;99.90;;;;;;5033096;28;20038;-71
2021/12/25 00:17:15;;;;;;;8.73;2.85;;;1.40;99.90;;;;;;5033695;28;20037;-71
2021/12/25 00:19:41;;;;;;;11.05;3.17;;;1.40;99.90;;;;;;5042946;28;20045;-71
2021/12/25 00:22:07;;;;;;;5.72;3.30;;;1.30;99.90;;;;;;5043470;28;20091;-71
2021/12/25 00:24:32;;;;;;;4.80;2.55;;;1.40;99.90;;;;;;5034920;28;20041;-71
2021/12/25 00:27:06;;;;;;;8.15;2.30;;;1.30;99.90;;;;;;5030572;28;20033;-70
2021/12/25 00:34:48;;;;;;;2.85;2.05;;;1.20;99.90;;;;;;5031885;28;20045;-71
2021/12/25 00:37:14;;;;;;;4.55;2.78;;;1.20;99.90;;;;;;5031507;28;20048;-71
2021/12/25 00:39:40;;;;;;;5.13;2.42;;;1.10;99.90;;;;;;5030638;28;20485;-71
2021/12/25 00:42:06;;;;;;;6.38;2.75;;;1.10;99.90;;;;;;5032672;28;20042;-72
2021/12/25 00:44:33;;;;;;;6.20;2.47;;;1.00;99.90;;;;;;5031441;28;20045;-72
2021/12/25 00:46:59;;;;;;;4.97;2.40;;;1.00;99.90;;;;;;5032898;28;20068;-72
2021/12/25 00:49:25;;;;;;;5.25;2.50;;;1.00;99.90;;;;;;5032779;28;20048;-72
2021/12/25 00:51:51;;;;;;;9.88;3.53;;;0.90;99.90;;;;;;5036859;28;20049;-71
2021/12/25 00:54:16;;;;;;;2.92;1.98;;;1.00;99.90;;;;;;5040662;28;20041;-72
2021/12/25 00:56:42;;;;;;;5.55;2.25;;;0.90;99.90;;;;;;5034969;28;20116;-72
2021/12/25 00:59:08;;;;;;;3.22;2.08;;;0.90;99.90;;;;;;5031462;28;20128;-72
2021/12/25 01:01:35;;;;;;;5.90;2.15;;;1.00;99.90;;;;;;5032497;28;20148;-72
2021/12/25 01:04:00;;;;;;;2.80;2.15;;;1.00;99.90;;;;;;5032224;28;20079;-72
2021/12/25 01:06:27;;;;;;;6.70;2.47;;;0.90;99.90;;;;;;5030837;28;20053;-72
2021/12/25 01:08:53;;;;;;;5.65;2.45;;;0.80;99.90;;;;;;5032052;28;20033;-71
2021/12/25 01:11:19;;;;;;;3.80;2.35;;;0.80;99.90;;;;;;5032107;28;20044;-72
2021/12/25 01:13:54;;;;;;;5.25;2.47;;;0.90;99.90;;;;;;5030185;28;20494;-72
2021/12/25 01:19:27;;;;;;;4.20;1.85;;;0.80;99.90;;;;;;5031767;28;20049;-72
2021/12/25 01:33:24;;;;;;;5.35;1.70;;;0.60;99.90;;;;;;5017909;28;20103;-71
2021/12/25 01:41:16;;;;;;;4.40;2.10;;;0.60;99.90;;;;;;5050333;28;20041;-72
2021/12/25 01:49:20;;;;;;;5.85;2.42;;;0.40;99.90;;;;;;5031147;28;20042;-72
2021/12/25 01:51:46;;;;;;;4.40;1.92;;;0.50;99.90;;;;;;5030722;28;20045;-72
2021/12/25 01:54:12;;;;;;;12.20;1.92;;;0.50;99.90;;;;;;5031291;28;20037;-72
2021/12/25 01:56:39;;;;;;;5.38;2.40;;;0.40;99.90;;;;;;5013628;28;20053;-71
2021/12/25 01:59:04;;;;;;;2.20;1.95;;;0.30;99.90;;;;;;5031254;28;20052;-72
2021/12/25 02:01:30;;;;;;;5.07;2.13;;;0.40;99.90;;;;;;5031210;28;20045;-72
2021/12/25 02:03:56;;;;;;;2.55;1.92;;;0.40;99.90;;;;;;5029617;28;20144;-71
2021/12/25 02:06:21;;;;;;;4.97;2.13;;;0.30;99.90;;;;;;5031190;28;20629;-71
2021/12/25 02:08:47;;;;;;;3.83;2.25;;;0.30;99.90;;;;;;5031006;28;20053;-71
2021/12/25 02:11:14;;;;;;;4.85;2.00;;;0.20;99.90;;;;;;5030898;28;20116;-71
2021/12/25 02:13:41;;;;;;;2.60;2.10;;;0.20;99.90;;;;;;5030995;28;20042;-71
2021/12/25 02:16:13;;;;;;;4.90;2.15;;;0.10;99.90;;;;;;5032328;28;20068;-71
2021/12/25 02:18:57;;;;;;;4.68;1.63;;;0.10;99.90;;;;;;5039843;28;20041;-72
2021/12/25 02:21:30;;;;;;;7.53;2.03;;;0.00;99.90;;;;;;5045940;28;20041;-71
2021/12/25 02:23:59;;;;;;;4.18;2.20;;;0.00;99.90;;;;;;5037773;28;20045;-71
2021/12/25 02:26:26;;;;;;;2.75;1.90;;;0.10;99.90;;;;;;5013085;28;20047;-72
2021/12/25 02:28:52;;;;;;;2.28;1.70;;;0.10;99.90;;;;;;5030694;28;20040;-71
2021/12/25 02:31:19;;;;;;;3.28;2.20;;;0.00;99.90;;;;;;5030948;28;20041;-71
2021/12/25 02:33:45;;;;;;;3.45;1.77;;;0.00;99.90;;;;;;5030653;28;20073;-71
2021/12/25 02:36:12;;;;;;;5.95;2.35;;;-0.10;99.90;;;;;;5029682;28;20073;-71
2021/12/25 02:38:39;;;;;;;6.13;2.30;;;-0.20;99.90;;;;;;5029374;28;20494;-71
2021/12/25 02:41:06;;;;;;;6.32;1.85;;;-0.10;99.90;;;;;;5029671;28;20041;-71
2021/12/25 02:43:32;;;;;;;2.88;1.85;;;-0.20;99.90;;;;;;5030487;28;20120;-71
2021/12/25 02:46:03;;;;;;;4.03;1.60;;;-0.40;99.90;;;;;;5029409;28;20099;-71
2021/12/25 02:48:30;;;;;;;4.10;2.35;;;-0.30;99.90;;;;;;5030818;28;20061;-71
2021/12/25 02:50:56;;;;;;;2.75;1.85;;;-0.30;99.90;;;;;;5030552;28;20393;-71
2021/12/25 02:53:22;;;;;;;7.97;2.25;;;-0.30;99.90;;;;;;5043509;28;20073;-71
2021/12/25 02:55:48;;;;;;;5.28;1.60;;;-0.30;99.90;;;;;;5050701;28;20045;-71
2021/12/25 02:58:14;;;;;;;6.13;2.33;;;-0.30;99.90;;;;;;5043332;28;20406;-71
2021/12/25 03:00:50;;;;;;;5.13;2.25;;;-0.30;99.90;;;;;;5030109;28;20052;-71
2021/12/25 03:03:16;;;;;;;2.47;1.90;;;-0.50;99.90;;;;;;5031419;28;20085;-71
2021/12/25 03:05:42;;;;;;;6.40;1.90;;;-0.40;99.90;;;;;;5029822;28;20111;-71
2021/12/25 03:08:10;;;;;;;3.22;1.92;;;-0.50;99.90;;;;;;5029853;28;20049;-71
2021/12/25 03:10:37;;;;;;;3.72;1.80;;;-0.40;99.90;;;;;;5030655;28;20513;-71
2021/12/25 03:15:46;;;;;;;3.08;1.77;;;-0.60;99.90;;;;;;5029911;28;20057;-71
2021/12/25 03:18:12;;;;;;;2.20;1.70;;;-0.40;99.90;;;;;;5029294;28;20493;-71
2021/12/25 03:20:40;;;;;;;3.38;1.80;;;-0.50;99.90;;;;;;5031894;28;20057;-71
2021/12/25 03:23:06;;;;;;;1.65;1.45;;;-0.60;99.90;;;;;;5032861;28;20087;-71
2021/12/25 03:25:32;;;;;;;1.98;1.80;;;-0.70;99.90;;;;;;5033966;28;20048;-70
2021/12/25 03:27:58;;;;;;;1.77;1.67;;;-0.60;99.90;;;;;;5033729;28;20414;-71
2021/12/25 03:30:25;;;;;;;2.88;2.03;;;-0.60;99.90;;;;;;5033913;28;20064;-71
2021/12/25 03:32:51;;;;;;;8.25;2.28;;;-0.70;99.90;;;;;;5033819;28;20041;-70
2021/12/25 03:35:16;;;;;;;2.08;1.88;;;-0.80;99.90;;;;;;5034039;28;20113;-70
2021/12/25 03:37:42;;;;;;;3.22;1.85;;;-0.90;99.90;;;;;;5033799;28;20521;-70
2021/12/25 03:40:08;;;;;;;3.50;1.80;;;-0.90;99.90;;;;;;5033741;28;20052;-70
2021/12/25 03:42:34;;;;;;;3.15;1.52;;;-0.90;99.90;;;;;;5033574;28;20041;-70
2021/12/25 03:45:00;;;;;;;3.45;1.67;;;-0.90;99.90;;;;;;5032609;28;20045;-70
2021/12/25 03:47:36;;;;;;;3.28;1.88;;;-0.90;99.90;;;;;;5047630;28;20528;-70
2021/12/25 03:58:26;;;;;;;2.25;1.60;;;-0.90;99.90;;;;;;5033347;28;20103;-70
2021/12/25 04:00:58;;;;;;;2.85;2.00;;;-1.10;99.90;;;;;;5032468;28;20127;-70
2021/12/25 04:03:38;;;;;;;1.80;1.70;;;-1.10;99.90;;;;;;5033132;28;20402;-70
2021/12/25 04:06:08;;;;;;;3.80;2.20;;;-1.10;99.90;;;;;;5033502;28;20141;-70
2021/12/25 04:08:40;;;;;;;4.47;1.60;;;-1.10;99.90;;;;;;5033436;28;20033;-70
2021/12/25 04:11:12;;;;;;;2.00;1.45;;;-1.10;99.90;;;;;;5050451;28;20113;-70
2021/12/25 04:13:38;;;;;;;2.63;1.60;;;-1.20;99.90;;;;;;5051956;28;20053;-70
2021/12/25 04:16:04;;;;;;;2.95;1.50;;;-1.30;99.90;;;;;;5033271;28;20040;-70
2021/12/25 04:18:29;;;;;;;5.75;1.88;;;-1.20;99.90;;;;;;5033022;28;20038;-70
2021/12/25 04:20:55;;;;;;;1.98;1.70;;;-1.20;99.90;;;;;;5033125;28;20038;-70
2021/12/25 04:23:25;;;;;;;2.83;1.52;;;-1.30;99.90;;;;;;5031583;28;20048;-70
2021/12/25 04:25:53;;;;;;;1.60;1.50;;;-1.40;99.90;;;;;;5032843;28;20052;-70
2021/12/25 04:28:36;;;;;;;1.50;1.40;;;-1.30;99.90;;;;;;5032649;28;20038;-70
2021/12/25 04:31:24;;;;;;;;;;;-1.40;99.90;;;;;;5033000;28;20569;-70
2021/12/25 04:48:09;;;;;;;3.10;1.30;;;-1.40;99.90;;;;;;5032458;28;20072;-70
2021/12/25 05:04:03;;;;;;;6.03;1.58;;;-1.60;99.90;;;;;;5032499;28;20140;-70
2021/12/25 05:06:29;;;;;;;1.42;1.40;;;-1.70;99.90;;;;;;5032575;28;20478;-70
2021/12/25 05:08:55;;;;;;;2.90;1.65;;;-1.60;99.90;;;;;;5032317;28;20029;-70
2021/12/25 05:11:22;;;;;;;1.55;1.45;;;-1.70;99.90;;;;;;5032432;28;20041;-70
2021/12/25 05:13:49;;;;;;;2.08;1.63;;;-1.60;99.90;;;;;;5035237;28;20061;-69
2021/12/25 05:16:18;;;;;;;1.77;1.67;;;-1.60;99.90;;;;;;5050832;28;20044;-70
2021/12/25 05:18:44;;;;;;;3.40;1.42;;;-1.70;99.90;;;;;;5048053;28;20072;-70
2021/12/25 05:21:12;;;;;;;3.72;1.70;;;-1.60;99.90;;;;;;5032291;28;20466;-70
2021/12/25 05:23:38;;;;;;;2.22;1.60;;;-1.70;99.90;;;;;;5031705;28;20045;-70
2021/12/25 05:26:04;;;;;;;2.03;1.58;;;-1.70;99.90;;;;;;5032016;28;20038;-70
2021/12/25 05:28:40;;;;;;;2.72;1.67;;;-1.70;99.90;;;;;;5044178;28;20042;-70
2021/12/25 05:31:07;;;;;;;3.35;1.60;;;-1.80;99.90;;;;;;5046125;28;20038;-70
2021/12/25 05:33:33;;;;;;;2.38;1.40;;;-1.60;99.90;;;;;;5034674;28;20057;-70
2021/12/25 05:35:59;;;;;;;1.60;1.50;;;-1.70;99.90;;;;;;5032775;28;20045;-70
2021/12/25 05:38:25;;;;;;;1.67;1.50;;;-1.70;99.90;;;;;;5032178;28;20047;-70
2021/12/25 05:40:50;;;;;;;3.78;1.63;;;-1.90;99.90;;;;;;5032517;28;20080;-70
2021/12/25 05:43:17;;;;;;;1.77;1.58;;;-1.80;99.90;;;;;;5031328;28;20089;-70
2021/12/25 05:45:43;;;;;;;1.50;1.50;;;-1.90;99.90;;;;;;5031792;28;20048;-70
2021/12/25 05:48:09;;;;;;;1.95;1.70;;;-1.90;99.90;;;;;;5031462;28;20103;-70
2021/12/25 05:50:35;;;;;;;2.17;1.50;;;-1.90;99.90;;;;;;5031441;28;20040;-70
2021/12/25 05:53:01;;;;;;;2.10;1.67;;;-1.90;99.90;;;;;;5031400;28;20053;-70
2021/12/25 05:55:27;;;;;;;5.35;1.70;;;-1.80;99.90;;;;;;5030205;28;20038;-70
2021/12/25 05:57:52;;;;;;;1.45;1.35;;;-1.80;99.90;;;;;;5031380;28;20068;-70
2021/12/25 06:00:20;;;;;;;3.70;1.58;;;-1.80;99.90;;;;;;5031215;28;20080;-70
2021/12/25 06:02:46;;;;;;;1.65;1.50;;;-1.90;99.90;;;;;;5030983;28;20541;-70
2021/12/25 06:05:11;;;;;;;1.75;1.65;;;-1.80;99.90;;;;;;5031551;28;20033;-70
2021/12/25 06:07:37;;;;;;;1.65;1.50;;;-1.90;99.90;;;;;;5031283;28;20056;-70
2021/12/25 06:10:07;;;;;;;2.83;1.83;;;-2.00;99.90;;;;;;5030480;28;20045;-70
2021/12/25 06:12:33;;;;;;;3.65;1.73;;;-1.90;99.90;;;;;;5031304;28;20048;-70
2021/12/25 06:15:01;;;;;;;5.03;1.33;;;-1.90;99.90;;;;;;5031283;28;20167;-70
2021/12/25 06:17:27;;;;;;;2.60;1.23;;;-1.90;99.90;;;;;;5031560;28;20046;-70
2021/12/25 06:19:53;;;;;;;2.85;1.50;;;-2.00;99.90;;;;;;5031594;28;20409;-70
2021/12/25 06:22:19;;;;;;;1.27;1.23;;;-2.00;99.90;;;;;;5030092;28;20045;-70
2021/12/25 06:24:49;;;;;;;1.65;1.55;;;-2.10;99.90;;;;;;5031454;28;20052;-70
2021/12/25 06:27:16;;;;;;;2.10;1.70;;;-2.00;99.90;;;;;;5031094;28;20045;-70
2021/12/25 06:29:42;;;;;;;1.63;1.52;;;-2.00;99.90;;;;;;5031167;28;20048;-70
2021/12/25 06:32:08;;;;;;;3.00;1.38;;;-2.10;99.90;;;;;;5031189;28;20117;-70
2021/12/25 06:34:33;;;;;;;4.97;1.60;;;-2.00;99.90;;;;;;5031342;28;20096;-70
2021/12/25 06:36:59;;;;;;;1.90;1.40;;;-2.00;99.90;;;;;;5031300;28;20776;-70
2021/12/25 06:39:25;;;;;;;1.65;1.45;;;-2.00;99.90;;;;;;5031014;28;20052;-70
2021/12/25 06:41:51;;;;;;;3.70;1.38;;;-2.00;99.90;;;;;;5031404;28;20044;-69
2021/12/25 06:44:17;;;;;;;2.40;1.17;;;-1.90;99.90;;;;;;5053234;28;20053;-69
2021/12/25 06:46:44;;;;;;;1.17;1.08;;;-1.90;99.90;;;;;;5053432;28;20057;-70
2021/12/25 06:49:09;;;;;;;1.58;1.30;;;-2.10;99.90;;;;;;5051318;28;20095;-70
2021/12/25 06:51:35;;;;;;;1.50;1.42;;;-2.10;99.90;;;;;;5049989;28;20046;-70
2021/12/25 06:54:02;;;;;;;1.30;1.30;;;-2.00;99.90;;;;;;5032991;28;20045;-70
2021/12/25 06:56:28;;;;;;;3.80;1.58;;;-2.00;99.90;;;;;;5034102;28;20057;-70
2021/12/25 06:58:53;;;;;;;1.55;1.50;;;-2.00;99.90;;;;;;5033313;28;20100;-70
2021/12/25 07:01:19;;;;;;;1.75;1.27;;;-2.00;99.90;;;;;;5034685;28;20059;-70
2021/12/25 07:03:44;;;;;;;3.88;1.55;;;-2.10;99.90;;;;;;5034338;28;20183;-69
2021/12/25 07:06:10;;;;;;;2.60;1.33;;;-2.10;99.90;;;;;;5033434;28;20084;-69
2021/12/25 07:08:36;;;;;;;2.55;1.30;;;-2.10;99.90;;;;;;5034492;28;20044;-69
2021/12/25 07:11:02;;;;;;;2.38;1.40;;;-2.10;99.90;;;;;;5031896;28;20090;-69
2021/12/25 07:13:27;;;;;;;2.53;1.30;;;-2.20;98.00;;;;;;5033688;28;20398;-70
2021/12/25 07:15:53;;;;;;;1.45;1.33;;;-2.10;99.70;;;;;;5032786;28;20037;-69
2021/12/25 07:18:18;;;;;;;4.57;1.45;;;-2.10;99.90;;;;;;5030244;28;20044;-69
2021/12/25 07:20:48;;;;;;;1.50;1.40;;;-2.20;95.70;;;;;;5025030;28;20495;-70
2021/12/25 07:23:15;;;;;;;1.35;1.30;;;-2.20;91.50;;;;;;5027967;28;20038;-70
2021/12/25 07:25:41;;;;;;;2.25;1.80;;;-2.20;95.00;;;;;;5028994;28;20049;-70
2021/12/25 07:28:07;;;;;;;1.30;1.23;;;-2.10;95.40;;;;;;5031942;28;20041;-70
2021/12/25 07:30:33;;;;;;;1.42;1.20;;;-2.10;91.90;;;;;;5030161;28;20041;-70
2021/12/25 07:32:59;;;;;;;1.80;1.40;;;-2.20;92.70;;;;;;5024506;28;20044;-70
2021/12/25 07:35:25;;;;;;;1.83;1.40;;;-2.10;93.70;;;;;;5027865;28;20637;-70
2021/12/25 07:37:51;;;;;;;1.48;1.35;;;-2.10;95.80;;;;;;5027277;28;20045;-71
2021/12/25 07:40:17;;;;;;;5.22;1.55;;;-2.20;94.40;;;;;;5030284;28;20045;-70
2021/12/25 07:42:43;;;;;;;4.65;1.50;;;-2.10;95.40;;;;;;5030514;28;20037;-70
2021/12/25 07:45:10;;;;;;;1.50;1.40;;;-2.20;96.10;;;;;;5027124;28;20683;-69
2021/12/25 07:47:40;;;;;;;1.85;1.23;;;-2.10;96.20;;;;;;5025204;28;20053;-70
2021/12/25 07:50:06;;;;;;;2.05;1.50;;;-2.20;94.90;;;;;;5031516;28;20033;-70
2021/12/25 07:52:32;;;;;;;1.67;1.58;;;-2.20;97.50;;;;;;5033405;28;20042;-70
2021/12/25 07:54:58;;;;;;;1.65;1.55;;;-2.20;94.50;;;;;;5033683;28;20038;-69
2021/12/25 07:57:24;;;;;;;1.55;1.45;;;-2.20;98.60;;;;;;5033386;28;20405;-71
2021/12/25 07:59:49;;;;;;;1.55;1.27;;;-2.30;98.00;;;;;;5033533;28;20405;-69
2021/12/25 08:02:16;;;;;;;1.55;1.33;;;-2.20;97.90;;;;;;5033364;28;20048;-69
2021/12/25 08:04:41;;;;;;;1.60;1.50;;;-2.30;95.40;;;;;;5045344;28;20042;-69
2021/12/25 08:07:07;;;;;;;1.90;1.58;;;-2.40;96.70;;;;;;5041595;28;20049;-68
2021/12/25 08:09:33;;;;;;;3.00;1.67;;;-2.30;98.60;;;;;;5035537;28;20092;-68
2021/12/25 08:12:00;;;;;;;2.15;1.30;;;-2.30;97.10;;;;;;5055914;28;20076;-69
2021/12/25 08:14:27;;;;;;;1.60;1.52;;;-2.50;96.20;;;;;;5056065;28;20120;-69
2021/12/25 08:16:58;;;;;;;1.60;1.38;;;-2.30;97.90;;;;;;5034741;28;20046;-68
2021/12/25 08:19:23;;;;;;;2.00;1.30;;;-2.20;98.10;;;;;;5033831;28;20159;-68
2021/12/25 08:21:50;;;;;;;2.72;1.52;;;-2.30;96.90;;;;;;5033228;28;20517;-68
2021/12/25 08:24:16;;;;;;;5.50;1.50;;;-2.30;99.70;;;;;;5033433;28;20034;-68
2021/12/25 08:26:42;;;;;;;1.85;1.50;;;-2.40;99.90;;;;;;5033481;28;20095;-68
2021/12/25 08:29:08;;;;;;;2.63;1.40;;;-2.20;99.90;;;;;;5033236;28;20099;-68
2021/12/25 08:31:34;;;;;;;1.60;1.40;;;-2.30;99.90;;;;;;5032855;28;20494;-69
2021/12/25 08:34:00;;;;;;;1.55;1.45;;;-2.30;99.20;;;;;;5032465;28;20052;-69
2021/12/25 08:36:25;;;;;;;5.93;1.75;;;-2.20;99.90;;;;;;5032722;28;20045;-68
2021/12/25 08:38:51;;;;;;;1.40;1.40;;;-2.30;99.90;;;;;;5032610;28;20490;-68
2021/12/25 08:41:17;;;;;;;3.90;1.92;;;-2.20;99.90;;;;;;5027768;28;20060;-68
2021/12/25 08:43:47;;;;;;;1.60;1.30;;;-2.20;99.90;;;;;;5031001;28;20114;-68
2021/12/25 08:46:24;;;;;;;1.40;1.40;;;-2.30;99.90;;;;;;5032830;28;20037;-69
2021/12/25 08:48:52;;;;;;;3.00;1.23;;;-2.30;99.90;;;;;;5032766;28;20052;-68
2021/12/25 08:51:17;;;;;;;4.40;1.63;;;-2.40;99.90;;;;;;5032318;28;20053;-69
2021/12/25 08:53:43;;;;;;;2.40;1.52;;;-2.40;99.90;;;;;;5032362;28;20040;-69
2021/12/25 08:56:09;;;;;;;2.05;1.30;;;-2.40;99.90;;;;;;5032586;28;20126;-69
2021/12/25 08:58:35;;;;;;;3.13;1.75;;;-2.40;99.90;;;;;;5032568;28;20112;-69
2021/12/25 09:01:06;;;;;;;1.50;1.40;;;-2.30;99.90;;;;;;5032490;28;20037;-69
2021/12/25 09:03:31;;;;;;;1.40;1.30;;;-2.40;99.90;;;;;;5032121;28;20391;-69
2021/12/25 09:05:59;;;;;;;3.72;1.67;;;-2.40;99.90;;;;;;5032256;28;20060;-69
2021/12/25 09:08:26;;;;;;;1.92;1.55;;;-2.40;99.90;;;;;;5032453;28;20056;-68
2021/12/25 09:10:52;;;;;;;2.67;1.60;;;-2.30;99.90;;;;;;5032493;28;20160;-68
2021/12/25 09:13:18;;;;;;;2.70;1.48;;;-2.20;99.90;;;;;;5032117;28;20041;-69
2021/12/25 09:15:43;;;;;;;3.00;1.65;;;-2.30;99.90;;;;;;5032017;28;20048;-70
2021/12/25 09:18:09;;;;;;;2.45;1.63;;;-2.30;99.90;;;;;;5036915;28;20037;-69
2021/12/25 09:20:35;;;;;;;1.77;1.48;;;-2.30;99.90;;;;;;5040748;28;20032;-69
2021/12/25 09:23:01;;;;;;;3.20;1.83;;;-2.20;99.90;;;;;;5021604;28;20069;-69
2021/12/25 09:25:27;;;;;;;2.72;2.05;;;-2.20;99.90;;;;;;5011918;28;20077;-69
2021/12/25 09:27:53;;;;;;;1.70;1.52;;;-2.20;99.90;;;;;;5010917;28;20050;-68
2021/12/25 09:30:19;;;;;;;3.47;1.70;;;-2.20;99.90;;;;;;5009708;28;20038;-69
2021/12/25 09:32:45;;;;;;;4.55;2.10;;;-2.20;99.90;;;;;;5010364;28;20045;-69
2021/12/25 09:35:12;;;;;;;1.60;1.50;;;-2.20;99.90;;;;;;5028060;28;20038;-69
2021/12/25 09:37:38;;;;;;;1.65;1.45;;;-2.20;99.90;;;;;;5027089;28;20060;-69
2021/12/25 09:40:06;;;;;;;1.85;1.52;;;-2.10;99.90;;;;;;5011091;28;20046;-69
2021/12/25 09:42:31;;;;;;;3.08;1.70;;;-2.20;99.90;;;;;;5021579;28;20091;-69
2021/12/25 09:44:57;;;;;;;1.83;1.73;;;-2.10;99.90;;;;;;5028491;28;20045;-69
2021/12/25 09:47:23;;;;;;;4.63;1.63;;;-2.00;99.90;;;;;;5045415;28;20112;-70
2021/12/25 09:49:49;;;;;;;1.52;1.42;;;-2.00;99.90;;;;;;5029844;28;20025;-69
2021/12/25 09:52:15;;;;;;;3.33;1.65;;;-2.10;99.90;;;;;;5030051;28;20043;-69
2021/12/25 09:54:41;;;;;;;2.85;1.80;;;-2.10;99.90;;;;;;5030043;28;20034;-69
2021/12/25 09:57:07;;;;;;;3.35;1.80;;;-2.10;99.90;;;;;;5014233;28;20046;-69
2021/12/25 09:59:33;;;;;;;3.00;1.58;;;-2.10;99.90;;;;;;5009802;28;20046;-70
2021/12/25 10:02:01;;;;;;;2.55;1.70;;;-2.10;99.90;;;;;;5024830;28;20045;-69
2021/12/25 10:04:45;;;;;;;3.45;1.60;;;-2.00;99.90;;;;;;5025189;28;20041;-70
2021/12/25 10:07:20;;;;;;;2.13;1.92;;;-2.00;99.90;;;;;;5012612;28;20125;-70
2021/12/25 10:10:04;;;;;;;3.95;1.45;;;-1.90;99.90;;;;;;5009987;28;20514;-70
2021/12/25 10:12:39;;;;;;;1.58;1.48;;;-1.80;99.90;;;;;;5009180;28;20026;-70
2021/12/25 10:15:08;;;;;;;2.15;1.67;;;-1.80;99.90;;;;;;5009951;28;20653;-71
2021/12/25 10:17:33;;;;;;;2.35;1.58;;;-1.70;99.90;;;;;;5009341;28;20084;-70
2021/12/25 10:20:08;;;;;;;4.30;1.70;;;-1.70;99.90;;;;;;5021334;28;20061;-71
2021/12/25 10:22:57;;;;;;;3.58;1.60;;;-1.80;99.90;;;;;;5024062;28;20077;-71
2021/12/25 10:25:23;;;;;;;3.95;1.70;;;-1.80;99.90;;;;;;5017249;28;20042;-70
2021/12/25 10:27:52;;;;;;;3.40;1.52;;;-1.70;99.90;;;;;;5021774;28;20042;-71
2021/12/25 10:30:18;;;;;;;2.53;1.60;;;-1.60;99.90;;;;;;5030085;28;20041;-71
2021/12/25 10:32:43;;;;;;;1.77;1.60;;;-1.60;99.40;;;;;;5034248;28;20036;-72
2021/12/25 10:35:21;;;;;;;2.70;1.55;;;-1.70;99.90;;;;;;5049852;28;20042;-71
2021/12/25 10:37:50;;;;;;;1.85;1.70;;;-1.80;98.00;;;;;;5031049;28;20046;-71
2021/12/25 10:40:33;;;;;;;4.53;1.55;;;-1.70;99.90;;;;;;5032192;28;20096;-71
2021/12/25 10:43:03;;;;;;;1.92;1.65;;;-1.50;99.90;;;;;;5042936;28;20107;-70
2021/12/25 10:45:30;;;;;;;3.42;1.50;;;-1.50;99.40;;;;;;5030348;28;20091;-71
2021/12/25 10:48:06;;;;;;;2.63;1.40;;;-1.50;99.90;;;;;;5030406;28;20497;-71
2021/12/25 10:50:39;;;;;;;4.13;1.58;;;-1.40;98.10;;;;;;5032318;28;20401;-71
2021/12/25 10:53:26;;;;;;;1.45;1.35;;;-1.40;99.70;;;;;;5033662;28;20041;-71
2021/12/25 10:55:53;;;;;;;2.40;1.75;;;-1.50;99.10;;;;;;5035768;28;20033;-71
2021/12/25 10:58:25;;;;;;;1.30;1.20;;;-1.40;94.80;;;;;;5047754;28;20083;-71
2021/12/25 11:00:54;;;;;;;2.03;1.85;;;-1.40;95.10;;;;;;5043058;28;20042;-72
2021/12/25 11:03:30;;;;;;;2.58;1.60;;;-1.40;95.60;;;;;;5032562;28;20073;-73
2021/12/25 11:06:09;;;;;;;3.17;1.63;;;-1.30;96.40;;;;;;5033587;28;20604;-72
2021/12/25 11:08:36;;;;;;;3.25;1.70;;;-1.40;93.80;;;;;;5033499;28;20034;-71
2021/12/25 11:11:20;;;;;;;2.40;1.50;;;-1.20;94.60;;;;;;5032254;28;20125;-73
2021/12/25 11:13:55;;;;;;;3.97;1.50;;;-1.20;91.50;;;;;;5033085;28;20120;-71
2021/12/25 11:16:28;;;;;;;4.45;1.83;;;-1.20;90.20;;;;;;5032016;28;20111;-71
2021/12/25 11:19:19;;;;;;;1.85;1.75;;;-1.20;90.90;;;;;;5033306;28;20414;-71
2021/12/25 11:21:45;;;;;;;1.30;1.30;;;-1.10;89.30;;;;;;5032079;28;20055;-70
2021/12/25 11:24:20;;;;;;;3.08;1.52;;;-1.20;89.00;;;;;;5031928;28;20127;-70
2021/12/25 11:26:52;;;;;;;2.60;1.60;;;-1.00;92.10;;;;;;5032142;28;20490;-71
2021/12/25 11:29:20;;;;;;;1.98;1.55;;;-1.10;85.30;;;;;;5032509;28;20042;-70
2021/12/25 11:31:48;;;;;;;3.90;2.38;;;-1.10;80.80;;;;;;5032936;28;20079;-71
2021/12/25 11:34:15;;;;;;;1.80;1.60;;;-1.00;83.70;;;;;;5033162;28;20033;-69
2021/12/25 11:36:45;;;;;;;4.03;1.75;;;-0.70;84.80;;;;;;5031899;28;20087;-70
2021/12/25 11:39:11;;;;;;;1.10;1.10;;;-0.90;83.10;;;;;;5031651;28;20045;-70
2021/12/25 11:41:38;;;;;;;4.70;1.70;;;-0.90;88.10;;;;;;5032234;28;20773;-70
2021/12/25 11:44:39;;;;;;;1.60;1.50;;;-0.90;87.90;;;;;;5033757;28;20037;-70
2021/12/25 11:47:06;;;;;;;2.15;1.30;;;-0.90;81.40;;;;;;5047855;28;20053;-70
2021/12/25 11:49:32;;;;;;;5.60;1.80;;;-0.80;88.80;;;;;;5046910;28;20112;-70
2021/12/25 11:52:18;;;;;;;2.88;1.50;;;-0.70;86.00;;;;;;5031848;28;20033;-71
2021/12/25 12:00:33;;;;;;;1.83;1.50;;;-0.80;84.30;;;;;;5009142;28;20409;-70
2021/12/25 12:02:59;;;;;;;3.95;1.45;;;-0.80;87.20;;;;;;5032100;28;20041;-70
2021/12/25 12:05:27;;;;;;;1.98;1.40;;;-0.90;78.80;;;;;;5032649;28;20037;-70
2021/12/25 12:07:59;;;;;;;1.50;1.40;;;-0.90;79.20;;;;;;5030617;28;20644;-70
2021/12/25 12:10:43;;;;;;;2.13;1.30;;;-0.80;78.50;;;;;;5032107;28;20052;-70
2021/12/25 12:13:31;;;;;;;2.05;1.85;;;-0.80;82.00;;;;;;5032154;28;20037;-72
2021/12/25 12:16:06;;;;;;;2.72;1.67;;;-0.70;82.60;;;;;;5030962;28;20052;-71
2021/12/25 12:18:34;;;;;;;2.08;1.95;;;-0.70;83.20;;;;;;5038776;28;20098;-70
2021/12/25 12:21:17;;;;;;;4.07;1.90;;;-0.70;83.70;;;;;;5038369;28;20041;-71
2021/12/25 12:24:21;;;;;;;1.38;1.35;;;-0.60;78.50;;;;;;5030249;28;20045;-71
2021/12/25 12:26:50;;;;;;;3.60;1.42;;;-0.70;81.60;;;;;;5032977;28;20080;-71
2021/12/25 12:29:38;;;;;;;2.97;1.55;;;-0.60;79.20;;;;;;5031867;28;20063;-70
2021/12/25 12:32:06;;;;;;;3.40;1.42;;;-0.60;83.50;;;;;;5030036;28;20124;-70
2021/12/25 12:34:41;;;;;;;6.32;2.00;;;-0.50;79.80;;;;;;5031475;28;20112;-70
2021/12/25 12:37:18;;;;;;;1.90;1.80;;;-0.50;82.50;;;;;;5031876;28;20678;-70
2021/12/25 12:39:53;;;;;;;1.55;1.42;;;-0.50;80.50;;;;;;5030786;28;20565;-71
2021/12/25 12:42:23;;;;;;;2.92;1.50;;;-0.60;76.70;;;;;;5031324;28;20132;-71
2021/12/25 12:44:49;;;;;;;2.03;1.70;;;-0.50;75.30;;;;;;5030665;28;20053;-71
2021/12/25 12:47:22;;;;;;;2.30;1.45;;;-0.50;78.00;;;;;;5029781;28;20038;-71
2021/12/25 12:49:51;;;;;;;1.63;1.52;;;-0.50;79.10;;;;;;5031782;28;20460;-71
2021/12/25 12:52:39;;;;;;;3.10;1.60;;;-0.50;82.60;;;;;;5029660;28;20099;-71
2021/12/25 12:55:26;;;;;;;2.03;1.80;;;-0.60;77.20;;;;;;5031671;28;20402;-71
2021/12/25 12:58:08;;;;;;;2.55;1.60;;;-0.60;75.40;;;;;;5031866;28;20042;-71
2021/12/25 13:00:34;;;;;;;3.15;1.98;;;-0.60;73.60;;;;;;5036655;28;20068;-70
2021/12/25 13:03:00;;;;;;;1.73;1.63;;;-0.60;75.30;;;;;;5036029;28;20045;-70
2021/12/25 13:05:39;;;;;;;3.33;1.80;;;-0.50;77.60;;;;;;5031582;28;20043;-71
2021/12/25 13:08:19;;;;;;;1.77;1.67;;;-0.50;80.60;;;;;;5031271;28;20116;-70
2021/12/25 13:10:52;;;;;;;4.20;1.48;;;-0.40;85.30;;;;;;5029774;28;20095;-70
2021/12/25 13:13:21;;;;;;;3.33;1.50;;;-0.40;81.20;;;;;;5029423;28;20095;-71
2021/12/25 13:15:49;;;;;;;1.75;1.65;;;-0.50;78.60;;;;;;5029611;28;20049;-71
2021/12/25 13:18:16;;;;;;;2.92;1.65;;;-0.40;78.50;;;;;;5031105;28;20473;-71
2021/12/25 13:20:49;;;;;;;1.77;1.67;;;-0.40;78.40;;;;;;5031044;28;20047;-71
2021/12/25 13:23:21;;;;;;;5.13;1.33;;;-0.40;75.70;;;;;;5029436;28;20045;-71
2021/12/25 13:26:03;;;;;;;2.25;1.40;;;-0.40;79.80;;;;;;5029856;28;20450;-71
2021/12/25 13:28:35;;;;;;;3.80;1.60;;;-0.40;81.30;;;;;;5029346;28;20501;-71
2021/12/25 13:31:10;;;;;;;1.43;1.33;;;-0.40;78.10;;;;;;5029588;28;20146;-70
2021/12/25 13:33:44;;;;;;;1.90;1.50;;;-0.30;78.40;;;;;;5029069;28;20042;-71
2021/12/25 13:36:13;;;;;;;2.17;1.45;;;-0.40;77.50;;;;;;5029054;28;20041;-71
2021/12/25 13:38:47;;;;;;;2.33;2.17;;;-0.40;80.40;;;;;;5030567;28;20040;-69
2021/12/25 13:41:15;;;;;;;2.65;1.85;;;-0.40;74.00;;;;;;5022012;28;20472;-70
2021/12/25 13:43:41;;;;;;;3.83;1.50;;;-0.40;73.70;;;;;;5012000;28;20038;-70
2021/12/25 13:46:06;;;;;;;2.45;1.60;;;-0.40;73.10;;;;;;5009203;28;20049;-70
2021/12/25 13:48:39;;;;;;;2.58;1.52;;;-0.40;77.00;;;;;;5023623;28;20041;-70
2021/12/25 13:51:06;;;;;;;2.05;1.60;;;-0.50;74.60;;;;;;5028704;28;20088;-70
2021/12/25 13:53:32;;;;;;;4.00;1.85;;;-0.40;74.50;;;;;;5028230;28;20037;-70
2021/12/25 13:56:09;;;;;;;5.85;1.60;;;-0.50;74.30;;;;;;5029815;28;20115;-70
2021/12/25 13:58:35;;;;;;;10.27;2.05;;;-0.50;77.50;;;;;;5028514;28;20076;-70
2021/12/25 14:01:00;;;;;;;2.45;1.70;;;-0.50;77.80;;;;;;5027298;28;20076;-70
2021/12/25 14:03:28;;;;;;;4.65;1.95;;;-0.50;79.00;;;;;;5008476;28;20049;-70
2021/12/25 14:05:54;;;;;;;4.70;1.50;;;-0.50;75.50;;;;;;5009787;28;20041;-70
2021/12/25 14:08:25;;;;;;;1.90;1.80;;;-0.60;74.80;;;;;;5016096;28;20048;-71
2021/12/25 14:10:59;;;;;;;1.80;1.33;;;-0.70;77.70;;;;;;5011198;28;20534;-70